Time;durP1;ratioP1;P1;durP2;ratioP2;P2;SDS_P1;SDS_P2;PMS_P1;PMS_P2;Temp;Humidity;BMP_temperature;BMP_pressure;BME280_temperature;BME280_humidity;BME280_pressure;Samples;Min_cycle;Max_cycle;Signal;HPM_P1;HPM_P2
2022/08/09 00:00:24;;;;;;;7.20;2.47;;;;;;;;;;4982568;28;20060;-60
2022/08/09 00:02:51;;;;;;;8.53;2.00;;;;;;;;;;4954643;28;20061;-61
2022/08/09 00:05:18;;;;;;;7.65;2.70;;;;;;;;;;4983864;28;20050;-60
2022/08/09 00:07:46;;;;;;;7.68;2.10;;;;;;;;;;4976848;28;20038;-60
2022/08/09 00:10:12;;;;;;;8.98;2.80;;;;;;;;;;4983244;28;20726;-60
2022/08/09 00:12:39;;;;;;;6.65;1.98;;;;;;;;;;4962203;28;20270;-61
2022/08/09 00:15:06;;;;;;;9.43;2.57;;;;;;;;;;4957778;28;20052;-61
2022/08/09 00:17:32;;;;;;;7.70;2.70;;;;;;;;;;4944995;28;20073;-61
2022/08/09 00:19:59;;;;;;;5.22;2.22;;;;;;;;;;4957043;28;20624;-61
2022/08/09 00:22:25;;;;;;;6.82;2.92;;;;;;;;;;4963645;28;20037;-61
2022/08/09 00:24:54;;;;;;;5.88;2.03;;;;;;;;;;4941696;28;20042;-61
2022/08/09 00:27:21;;;;;;;6.83;1.97;;;;;;;;;;4922872;28;20038;-61
2022/08/09 00:29:47;;;;;;;4.70;1.80;;;;;;;;;;4977776;28;20042;-61
2022/08/09 00:32:14;;;;;;;6.85;2.47;;;;;;;;;;4957491;28;20069;-61
2022/08/09 00:34:40;;;;;;;6.00;2.42;;;;;;;;;;4980605;28;20049;-61
2022/08/09 00:37:07;;;;;;;7.15;2.33;;;;;;;;;;4974729;28;20042;-61
2022/08/09 00:39:33;;;;;;;5.73;2.50;;;;;;;;;;4979749;28;20058;-61
2022/08/09 00:42:02;;;;;;;8.15;2.00;;;;;;;;;;4981359;28;20081;-60
2022/08/09 00:44:28;;;;;;;5.32;1.60;;;;;;;;;;4972422;28;20391;-60
2022/08/09 00:46:55;;;;;;;6.55;2.00;;;;;;;;;;4986262;28;20054;-57
2022/08/09 00:49:21;;;;;;;5.20;1.92;;;;;;;;;;4964275;28;20038;-61
2022/08/09 00:51:48;;;;;;;6.00;1.90;;;;;;;;;;4981018;28;20082;-60
2022/08/09 00:54:15;;;;;;;5.40;2.00;;;;;;;;;;4953984;28;20058;-55
2022/08/09 00:56:42;;;;;;;6.05;2.33;;;;;;;;;;4981771;28;20101;-61
2022/08/09 00:59:10;;;;;;;6.47;2.03;;;;;;;;;;4969797;28;20096;-61
2022/08/09 01:01:39;;;;;;;5.43;1.90;;;;;;;;;;4976772;28;20362;-60
2022/08/09 01:04:08;;;;;;;6.93;2.23;;;;;;;;;;4980093;28;20034;-61
2022/08/09 01:06:38;;;;;;;8.63;2.63;;;;;;;;;;4977580;28;20047;-56
2022/08/09 01:09:11;;;;;;;5.68;1.80;;;;;;;;;;4975851;28;20039;-60
2022/08/09 01:11:46;;;;;;;6.60;2.03;;;;;;;;;;4975499;28;20244;-60
2022/08/09 01:14:23;;;;;;;6.20;2.00;;;;;;;;;;4972107;28;20069;-60
2022/08/09 01:16:52;;;;;;;5.87;2.10;;;;;;;;;;4955788;28;20109;-61
2022/08/09 01:19:33;;;;;;;4.88;2.00;;;;;;;;;;4984274;28;20053;-61
2022/08/09 01:22:08;;;;;;;5.57;1.80;;;;;;;;;;4968144;28;20102;-60
2022/08/09 01:24:37;;;;;;;6.03;2.30;;;;;;;;;;4973207;28;20065;-60
2022/08/09 01:27:07;;;;;;;5.22;2.30;;;;;;;;;;4975035;28;20133;-59
2022/08/09 01:29:38;;;;;;;6.50;2.43;;;;;;;;;;4975505;28;20057;-59
2022/08/09 01:32:07;;;;;;;7.03;2.25;;;;;;;;;;4978644;28;20373;-60
2022/08/09 01:34:34;;;;;;;5.45;2.10;;;;;;;;;;4968099;28;20764;-59
2022/08/09 01:37:01;;;;;;;6.55;2.30;;;;;;;;;;4984127;28;20038;-61
2022/08/09 01:39:29;;;;;;;5.65;2.15;;;;;;;;;;4968941;28;20096;-60
2022/08/09 01:41:56;;;;;;;6.03;2.30;;;;;;;;;;4979014;28;20048;-60
2022/08/09 01:44:25;;;;;;;8.23;3.00;;;;;;;;;;4963303;28;20046;-61
2022/08/09 01:46:52;;;;;;;10.65;2.80;;;;;;;;;;4974536;28;20042;-62
2022/08/09 01:49:20;;;;;;;5.15;2.28;;;;;;;;;;4967592;28;20606;-59
2022/08/09 01:51:48;;;;;;;8.25;2.50;;;;;;;;;;4980835;28;20097;-60
2022/08/09 01:54:15;;;;;;;7.27;2.50;;;;;;;;;;4960876;28;20170;-60
2022/08/09 01:56:44;;;;;;;7.05;2.50;;;;;;;;;;4980773;28;20038;-59
2022/08/09 01:59:11;;;;;;;7.93;2.17;;;;;;;;;;4964444;28;20089;-59
2022/08/09 02:01:40;;;;;;;7.45;2.35;;;;;;;;;;4981178;28;20046;-60
2022/08/09 02:04:08;;;;;;;6.03;2.30;;;;;;;;;;4977773;28;20186;-59
2022/08/09 02:09:20;;;;;;;7.78;2.75;;;;;;;;;;4964305;28;20045;-59
2022/08/09 02:11:46;;;;;;;7.35;2.45;;;;;;;;;;4972791;28;20575;-60
2022/08/09 02:14:15;;;;;;;6.63;2.35;;;;;;;;;;4974851;28;20038;-60
2022/08/09 02:16:43;;;;;;;5.47;2.58;;;;;;;;;;4967052;28;20105;-59
2022/08/09 02:19:10;;;;;;;7.90;3.00;;;;;;;;;;4972317;28;20050;-58
2022/08/09 02:21:39;;;;;;;9.85;2.90;;;;;;;;;;4950331;28;20581;-58
2022/08/09 02:24:07;;;;;;;6.20;2.53;;;;;;;;;;4965057;28;20077;-60
2022/08/09 02:26:35;;;;;;;6.50;2.22;;;;;;;;;;4985007;28;20125;-60
2022/08/09 02:29:02;;;;;;;8.23;2.10;;;;;;;;;;4967701;28;20050;-59
2022/08/09 02:31:30;;;;;;;6.10;2.20;;;;;;;;;;4981720;28;20046;-59
2022/08/09 02:34:01;;;;;;;5.30;2.28;;;;;;;;;;4972242;28;20046;-60
2022/08/09 02:36:30;;;;;;;6.95;2.55;;;;;;;;;;4980662;28;20050;-60
2022/08/09 02:38:58;;;;;;;6.22;2.10;;;;;;;;;;4979980;28;20046;-60
2022/08/09 02:41:28;;;;;;;8.75;2.60;;;;;;;;;;4971400;28;20042;-60
2022/08/09 02:43:57;;;;;;;7.60;2.40;;;;;;;;;;4984767;28;20072;-59
2022/08/09 02:46:25;;;;;;;5.82;2.63;;;;;;;;;;4973689;28;20101;-59
2022/08/09 02:48:53;;;;;;;6.75;2.63;;;;;;;;;;4984972;28;20038;-59
2022/08/09 02:51:22;;;;;;;6.25;2.65;;;;;;;;;;4960811;28;20514;-60
2022/08/09 02:53:51;;;;;;;6.35;2.70;;;;;;;;;;4962411;28;20042;-59
2022/08/09 02:56:18;;;;;;;6.77;2.77;;;;;;;;;;4986844;28;20054;-58
2022/08/09 02:58:46;;;;;;;6.55;2.22;;;;;;;;;;4969864;28;20044;-59
2022/08/09 03:01:13;;;;;;;6.05;2.40;;;;;;;;;;4987796;28;20038;-60
2022/08/09 03:03:40;;;;;;;6.18;2.75;;;;;;;;;;4971157;28;20046;-60
2022/08/09 03:06:07;;;;;;;7.40;2.72;;;;;;;;;;4984179;28;20053;-60
2022/08/09 03:08:38;;;;;;;7.63;2.93;;;;;;;;;;4973576;28;20365;-59
2022/08/09 03:11:05;;;;;;;7.30;2.30;;;;;;;;;;4984492;28;20081;-60
2022/08/09 03:13:32;;;;;;;7.95;2.50;;;;;;;;;;4975612;28;20699;-59
2022/08/09 03:15:58;;;;;;;7.10;2.20;;;;;;;;;;4972237;28;20341;-59
2022/08/09 03:18:25;;;;;;;9.15;2.60;;;;;;;;;;4953314;28;20480;-59
2022/08/09 03:20:52;;;;;;;5.93;2.10;;;;;;;;;;4960585;28;20073;-59
2022/08/09 03:23:18;;;;;;;6.60;2.35;;;;;;;;;;4973365;28;20103;-59
2022/08/09 03:25:47;;;;;;;6.15;2.10;;;;;;;;;;4978052;28;20038;-59
2022/08/09 03:28:14;;;;;;;6.25;2.55;;;;;;;;;;4976928;28;20066;-60
2022/08/09 03:30:41;;;;;;;5.85;2.40;;;;;;;;;;4986876;28;20058;-59
2022/08/09 03:33:08;;;;;;;7.80;2.40;;;;;;;;;;4946425;28;20053;-59
2022/08/09 03:35:35;;;;;;;8.95;2.47;;;;;;;;;;4957008;28;20050;-59
2022/08/09 03:38:02;;;;;;;6.85;2.47;;;;;;;;;;4975173;28;20065;-59
2022/08/09 03:40:28;;;;;;;6.95;2.15;;;;;;;;;;4975081;28;20053;-59
2022/08/09 03:42:56;;;;;;;5.70;2.22;;;;;;;;;;4978759;28;20122;-58
2022/08/09 03:45:23;;;;;;;5.10;2.10;;;;;;;;;;4973699;28;20053;-59
2022/08/09 03:47:50;;;;;;;6.28;2.40;;;;;;;;;;4981432;28;20042;-59
2022/08/09 03:50:17;;;;;;;9.10;2.50;;;;;;;;;;4954476;28;20744;-59
2022/08/09 03:52:44;;;;;;;6.60;2.15;;;;;;;;;;4976882;28;20050;-59
2022/08/09 03:55:11;;;;;;;9.68;2.42;;;;;;;;;;4975498;28;20046;-59
2022/08/09 03:57:38;;;;;;;7.60;2.47;;;;;;;;;;4980998;28;20037;-59
2022/08/09 04:00:07;;;;;;;7.38;2.70;;;;;;;;;;4976479;28;20128;-59
2022/08/09 04:02:34;;;;;;;6.40;2.58;;;;;;;;;;4983380;28;20042;-59
2022/08/09 04:05:01;;;;;;;7.30;2.75;;;;;;;;;;4969703;28;20050;-59
2022/08/09 04:07:28;;;;;;;6.03;2.80;;;;;;;;;;4979441;28;20085;-59
2022/08/09 04:09:54;;;;;;;9.13;2.73;;;;;;;;;;4972139;28;20066;-59
2022/08/09 04:12:27;;;;;;;7.38;2.72;;;;;;;;;;4983343;28;20050;-60
2022/08/09 04:14:53;;;;;;;20.10;2.72;;;;;;;;;;4980897;28;20097;-60
2022/08/09 04:17:21;;;;;;;6.82;2.50;;;;;;;;;;4979081;28;20043;-59
2022/08/09 04:19:48;;;;;;;6.32;2.78;;;;;;;;;;4983592;28;20535;-59
2022/08/09 04:22:14;;;;;;;6.77;3.30;;;;;;;;;;4971022;28;20047;-58
2022/08/09 04:24:41;;;;;;;7.25;2.53;;;;;;;;;;4981506;28;20042;-59
2022/08/09 04:27:07;;;;;;;6.47;2.80;;;;;;;;;;4967268;28;20038;-59
2022/08/09 04:29:34;;;;;;;6.28;2.75;;;;;;;;;;4965667;28;20042;-59
2022/08/09 04:32:01;;;;;;;6.30;2.70;;;;;;;;;;4978595;28;20035;-59
2022/08/09 04:34:32;;;;;;;5.80;2.37;;;;;;;;;;4979489;28;20042;-59
2022/08/09 04:36:58;;;;;;;5.88;2.40;;;;;;;;;;4973456;28;20034;-59
2022/08/09 04:39:25;;;;;;;5.88;2.42;;;;;;;;;;4982325;28;20050;-59
2022/08/09 04:41:51;;;;;;;7.50;2.88;;;;;;;;;;4969689;28;20511;-59
2022/08/09 04:44:18;;;;;;;7.30;2.20;;;;;;;;;;4964565;28;20717;-60
2022/08/09 04:46:44;;;;;;;10.33;2.60;;;;;;;;;;4976360;28;20077;-60
2022/08/09 04:49:11;;;;;;;6.72;2.60;;;;;;;;;;4983055;28;20062;-59
2022/08/09 04:51:39;;;;;;;7.30;2.60;;;;;;;;;;4973333;28;20054;-59
2022/08/09 04:54:05;;;;;;;7.15;2.60;;;;;;;;;;4978101;28;20053;-59
2022/08/09 04:56:32;;;;;;;6.80;3.05;;;;;;;;;;4969962;28;20113;-59
2022/08/09 04:58:59;;;;;;;7.67;3.00;;;;;;;;;;4975964;28;20046;-58
2022/08/09 05:01:25;;;;;;;6.55;2.67;;;;;;;;;;4975226;28;20220;-59
2022/08/09 05:03:51;;;;;;;9.52;3.05;;;;;;;;;;4982360;28;20476;-59
2022/08/09 05:06:18;;;;;;;6.80;2.75;;;;;;;;;;4974990;28;20061;-59
2022/08/09 05:08:46;;;;;;;6.03;2.70;;;;;;;;;;4983129;28;20049;-60
2022/08/09 05:11:12;;;;;;;9.17;2.90;;;;;;;;;;4964406;28;20042;-59
2022/08/09 05:13:40;;;;;;;7.03;2.60;;;;;;;;;;4983387;28;20113;-58
2022/08/09 05:16:07;;;;;;;8.15;2.97;;;;;;;;;;4970352;28;20050;-60
2022/08/09 05:18:34;;;;;;;6.43;2.65;;;;;;;;;;4979408;28;20061;-60
2022/08/09 05:21:00;;;;;;;7.68;2.65;;;;;;;;;;4971627;28;21101;-59
2022/08/09 05:23:27;;;;;;;7.83;2.70;;;;;;;;;;4985983;28;20069;-59
2022/08/09 05:25:55;;;;;;;6.05;2.78;;;;;;;;;;4967398;28;20043;-59
2022/08/09 05:28:21;;;;;;;6.40;2.85;;;;;;;;;;4974104;28;20042;-58
2022/08/09 05:30:48;;;;;;;7.15;2.95;;;;;;;;;;4971553;28;20998;-60
2022/08/09 05:33:15;;;;;;;7.00;3.05;;;;;;;;;;4979766;28;20183;-58
2022/08/09 05:35:42;;;;;;;8.63;3.27;;;;;;;;;;4976996;28;20098;-60
2022/08/09 05:38:08;;;;;;;6.47;2.80;;;;;;;;;;4973151;28;20053;-60
2022/08/09 05:40:35;;;;;;;10.32;3.33;;;;;;;;;;4968431;28;20042;-59
2022/08/09 05:43:03;;;;;;;8.50;3.63;;;;;;;;;;4981812;28;20070;-60
2022/08/09 05:45:29;;;;;;;7.13;3.15;;;;;;;;;;4966975;28;20638;-60
2022/08/09 05:47:56;;;;;;;6.43;3.30;;;;;;;;;;4985214;28;20061;-59
2022/08/09 05:50:24;;;;;;;8.10;3.45;;;;;;;;;;4967409;28;20050;-60
2022/08/09 05:52:51;;;;;;;7.90;3.63;;;;;;;;;;4959744;28;20042;-60
2022/08/09 05:55:17;;;;;;;8.23;3.60;;;;;;;;;;4954315;28;20266;-59
2022/08/09 05:57:44;;;;;;;8.48;3.60;;;;;;;;;;4974238;28;20451;-60
2022/08/09 06:00:13;;;;;;;10.93;4.60;;;;;;;;;;4966506;28;20066;-60
2022/08/09 06:02:39;;;;;;;8.07;3.30;;;;;;;;;;4984254;28;20047;-60
2022/08/09 06:05:07;;;;;;;7.68;3.47;;;;;;;;;;4974766;28;20050;-60
2022/08/09 06:07:34;;;;;;;7.53;3.78;;;;;;;;;;4980912;28;20061;-59
2022/08/09 06:10:00;;;;;;;7.55;3.35;;;;;;;;;;4969440;28;20062;-61
2022/08/09 06:12:27;;;;;;;8.97;3.70;;;;;;;;;;4980981;28;20042;-60
2022/08/09 06:14:53;;;;;;;7.38;3.70;;;;;;;;;;4970613;28;20065;-59
2022/08/09 06:17:21;;;;;;;8.68;3.85;;;;;;;;;;4983445;28;20034;-60
2022/08/09 06:19:48;;;;;;;8.80;3.83;;;;;;;;;;4976766;28;20046;-60
2022/08/09 06:22:16;;;;;;;7.45;3.30;;;;;;;;;;4980605;28;20051;-59
2022/08/09 06:24:42;;;;;;;9.93;3.80;;;;;;;;;;4966192;28;20045;-59
2022/08/09 06:27:09;;;;;;;7.85;3.40;;;;;;;;;;4977187;28;20038;-59
2022/08/09 06:29:36;;;;;;;8.98;3.15;;;;;;;;;;4973047;28;20077;-59
2022/08/09 06:32:02;;;;;;;8.32;3.10;;;;;;;;;;4959338;28;20050;-59
2022/08/09 06:34:30;;;;;;;9.13;3.25;;;;;;;;;;4941464;28;20698;-60
2022/08/09 06:36:57;;;;;;;9.20;3.63;;;;;;;;;;4953173;28;20046;-59
2022/08/09 06:39:26;;;;;;;8.98;3.45;;;;;;;;;;4948714;28;20046;-59
2022/08/09 06:41:53;;;;;;;9.05;3.40;;;;;;;;;;4977618;28;20038;-60
2022/08/09 06:44:20;;;;;;;8.20;3.58;;;;;;;;;;4980899;28;20069;-60
2022/08/09 06:46:49;;;;;;;7.45;3.40;;;;;;;;;;4973244;28;20049;-59
2022/08/09 06:49:15;;;;;;;7.57;3.37;;;;;;;;;;4976076;28;20074;-54
2022/08/09 06:51:43;;;;;;;8.77;3.50;;;;;;;;;;4967913;28;20050;-60
2022/08/09 06:54:11;;;;;;;7.75;3.15;;;;;;;;;;4985474;28;20050;-60
2022/08/09 06:56:37;;;;;;;7.88;3.40;;;;;;;;;;4959294;28;20197;-59
2022/08/09 06:59:04;;;;;;;10.45;3.03;;;;;;;;;;4982072;28;20042;-60
2022/08/09 07:01:30;;;;;;;8.93;3.43;;;;;;;;;;4955988;28;20034;-60
2022/08/09 07:03:57;;;;;;;7.43;3.40;;;;;;;;;;4986669;28;20050;-58
2022/08/09 07:06:24;;;;;;;6.60;3.40;;;;;;;;;;4953072;28;20038;-60
2022/08/09 07:08:52;;;;;;;7.55;3.13;;;;;;;;;;4968386;28;20034;-58
2022/08/09 07:11:18;;;;;;;6.97;3.15;;;;;;;;;;4978373;28;20043;-59
2022/08/09 07:13:44;;;;;;;8.10;3.07;;;;;;;;;;4959881;28;20045;-60
2022/08/09 07:16:11;;;;;;;8.18;3.25;;;;;;;;;;4979895;28;20047;-59
2022/08/09 07:18:38;;;;;;;10.55;4.15;;;;;;;;;;4974496;28;20453;-59
2022/08/09 07:21:04;;;;;;;9.50;4.07;;;;;;;;;;4982131;28;20145;-60
2022/08/09 07:23:31;;;;;;;11.52;3.83;;;;;;;;;;4908920;28;20117;-57
2022/08/09 07:25:59;;;;;;;10.27;4.83;;;;;;;;;;4942530;28;20046;-58
2022/08/09 07:28:25;;;;;;;10.63;4.75;;;;;;;;;;4919332;28;20311;-58
2022/08/09 07:30:52;;;;;;;10.18;4.03;;;;;;;;;;4935552;28;20463;-58
2022/08/09 07:33:19;;;;;;;10.00;3.60;;;;;;;;;;4958581;28;20061;-60
2022/08/09 07:35:46;;;;;;;10.80;4.05;;;;;;;;;;4977176;28;20538;-60
2022/08/09 07:38:13;;;;;;;7.03;2.93;;;;;;;;;;4973720;28;20050;-60
2022/08/09 07:40:39;;;;;;;5.97;2.60;;;;;;;;;;4975518;28;20046;-60
2022/08/09 07:43:07;;;;;;;6.07;2.33;;;;;;;;;;4977509;28;20424;-60
2022/08/09 07:45:34;;;;;;;7.35;2.67;;;;;;;;;;4975469;28;20046;-60
2022/08/09 07:48:01;;;;;;;5.20;2.40;;;;;;;;;;4965923;28;20396;-60
2022/08/09 07:50:28;;;;;;;5.63;2.40;;;;;;;;;;4933475;28;1302772;-60
2022/08/09 07:52:56;;;;;;;7.18;2.33;;;;;;;;;;4978419;28;20541;-60
2022/08/09 07:55:23;;;;;;;5.70;1.90;;;;;;;;;;4984599;28;20046;-60
2022/08/09 07:57:49;;;;;;;6.57;2.38;;;;;;;;;;4961532;28;20042;-60
2022/08/09 08:00:18;;;;;;;7.03;2.30;;;;;;;;;;4983883;28;20050;-59
2022/08/09 08:02:45;;;;;;;10.88;2.40;;;;;;;;;;4968640;28;20039;-59
2022/08/09 08:05:11;;;;;;;5.70;2.30;;;;;;;;;;4981628;28;20035;-59
2022/08/09 08:07:39;;;;;;;6.67;2.13;;;;;;;;;;4974294;28;20042;-59
2022/08/09 08:10:06;;;;;;;5.75;1.70;;;;;;;;;;4979664;28;20050;-58
2022/08/09 08:12:33;;;;;;;5.38;1.80;;;;;;;;;;4978080;28;20038;-58
2022/08/09 08:14:59;;;;;;;4.53;1.77;;;;;;;;;;4285448;28;10000573;-58
2022/08/09 08:17:27;;;;;;;6.50;1.65;;;;;;;;;;4971767;28;20046;-59
2022/08/09 08:19:54;;;;;;;6.40;1.90;;;;;;;;;;4978264;28;20453;-59
2022/08/09 08:22:20;;;;;;;6.60;1.60;;;;;;;;;;4971062;28;20077;-58
2022/08/09 08:24:50;;;;;;;4.93;1.20;;;;;;;;;;4629180;28;10000181;-59
2022/08/09 08:27:18;;;;;;;4.82;1.40;;;;;;;;;;4905372;28;20684;-59
2022/08/09 08:29:45;;;;;;;4.25;1.33;;;;;;;;;;4964125;28;20456;-58
2022/08/09 08:32:12;;;;;;;4.97;1.00;;;;;;;;;;4976986;28;20073;-58
2022/08/09 08:34:39;;;;;;;5.97;1.20;;;;;;;;;;4978696;28;20078;-59
2022/08/09 08:37:06;;;;;;;4.30;1.10;;;;;;;;;;4984796;28;20038;-59
2022/08/09 08:39:32;;;;;;;3.45;0.90;;;;;;;;;;4972321;28;20057;-59
2022/08/09 08:41:59;;;;;;;3.78;0.90;;;;;;;;;;4965961;28;20043;-59
2022/08/09 08:44:27;;;;;;;5.22;1.17;;;;;;;;;;4986345;28;20034;-58
2022/08/09 08:46:54;;;;;;;6.05;1.23;;;;;;;;;;4963486;28;20104;-59
2022/08/09 08:49:21;;;;;;;6.50;1.33;;;;;;;;;;4962353;28;20034;-58
2022/08/09 08:51:49;;;;;;;4.43;1.10;;;;;;;;;;4971051;28;20073;-59
2022/08/09 08:54:16;;;;;;;3.42;0.98;;;;;;;;;;4972992;28;20120;-58
2022/08/09 08:56:44;;;;;;;4.35;1.08;;;;;;;;;;4954358;28;20525;-58
2022/08/09 08:59:11;;;;;;;5.47;0.90;;;;;;;;;;4981155;28;20065;-59
2022/08/09 09:01:39;;;;;;;5.00;0.60;;;;;;;;;;4963219;28;20655;-59
2022/08/09 09:04:08;;;;;;;4.10;0.85;;;;;;;;;;4980063;28;20042;-59
2022/08/09 09:06:36;;;;;;;4.22;0.60;;;;;;;;;;4956697;28;20555;-58
2022/08/09 09:09:05;;;;;;;3.47;0.90;;;;;;;;;;4978950;28;20093;-59
2022/08/09 09:11:32;;;;;;;3.67;0.77;;;;;;;;;;4957657;28;20112;-59
2022/08/09 09:14:00;;;;;;;5.07;0.90;;;;;;;;;;4982807;28;20050;-58
2022/08/09 09:16:28;;;;;;;3.38;1.00;;;;;;;;;;4966141;28;20042;-59
2022/08/09 09:18:55;;;;;;;3.28;1.00;;;;;;;;;;4981284;28;20093;-59
2022/08/09 09:21:21;;;;;;;2.95;0.70;;;;;;;;;;4956536;28;20102;-60
2022/08/09 09:23:48;;;;;;;4.10;0.70;;;;;;;;;;4966091;28;20045;-59
2022/08/09 09:26:16;;;;;;;4.07;1.10;;;;;;;;;;4965792;28;20085;-59
2022/08/09 09:28:44;;;;;;;4.65;0.80;;;;;;;;;;4943988;28;20500;-59
2022/08/09 09:31:13;;;;;;;4.35;0.80;;;;;;;;;;4981453;28;20051;-59
2022/08/09 09:33:40;;;;;;;3.47;1.10;;;;;;;;;;4970213;28;20045;-59
2022/08/09 09:36:11;;;;;;;3.92;1.08;;;;;;;;;;4975878;28;20070;-59
2022/08/09 09:38:42;;;;;;;4.77;1.17;;;;;;;;;;4971657;28;20038;-59
2022/08/09 09:41:09;;;;;;;4.13;1.08;;;;;;;;;;4971258;28;20038;-59
2022/08/09 09:43:36;;;;;;;3.97;1.05;;;;;;;;;;4976562;28;20568;-59
2022/08/09 09:46:07;;;;;;;3.10;0.65;;;;;;;;;;4981193;28;20038;-59
2022/08/09 09:48:34;;;;;;;3.22;0.90;;;;;;;;;;4971331;28;20925;-59
2022/08/09 09:51:01;;;;;;;3.93;1.00;;;;;;;;;;4983623;28;20536;-59
2022/08/09 09:53:27;;;;;;;4.22;1.05;;;;;;;;;;4969577;28;20034;-59
2022/08/09 09:55:55;;;;;;;5.05;0.77;;;;;;;;;;4982683;28;20571;-59
2022/08/09 09:58:22;;;;;;;4.95;1.23;;;;;;;;;;4975427;28;20192;-59
2022/08/09 10:00:51;;;;;;;2.95;0.70;;;;;;;;;;4985056;28;20045;-59
2022/08/09 10:03:17;;;;;;;3.93;1.10;;;;;;;;;;4965176;28;20039;-57
2022/08/09 10:05:57;;;;;;;5.53;0.93;;;;;;;;;;4982047;28;20333;-59
2022/08/09 10:08:24;;;;;;;4.40;0.98;;;;;;;;;;4953704;28;20034;-59
2022/08/09 10:10:51;;;;;;;5.55;1.20;;;;;;;;;;4965825;28;20069;-59
2022/08/09 10:13:17;;;;;;;4.30;1.00;;;;;;;;;;4977802;28;20046;-58
2022/08/09 10:15:49;;;;;;;3.43;0.93;;;;;;;;;;4975920;28;20532;-59
2022/08/09 10:18:19;;;;;;;4.35;1.10;;;;;;;;;;4977691;28;20387;-59
2022/08/09 10:20:46;;;;;;;4.13;1.00;;;;;;;;;;4981900;28;20540;-59
2022/08/09 10:23:16;;;;;;;5.45;1.20;;;;;;;;;;4954963;28;20045;-59
2022/08/09 10:25:44;;;;;;;4.83;1.23;;;;;;;;;;4631799;28;10000524;-60
2022/08/09 10:28:10;;;;;;;5.22;1.10;;;;;;;;;;4954506;28;20106;-59
2022/08/09 10:30:37;;;;;;;5.10;1.10;;;;;;;;;;4975503;28;20038;-58
2022/08/09 10:33:04;;;;;;;4.13;1.17;;;;;;;;;;4971629;28;20046;-59
2022/08/09 10:35:32;;;;;;;3.80;1.00;;;;;;;;;;4982365;28;20046;-58
2022/08/09 10:37:59;;;;;;;3.47;0.97;;;;;;;;;;4972984;28;20842;-58
2022/08/09 10:40:26;;;;;;;3.25;1.00;;;;;;;;;;4962396;28;20038;-59
2022/08/09 10:42:53;;;;;;;5.00;1.10;;;;;;;;;;4974952;28;20038;-58
2022/08/09 10:45:20;;;;;;;5.35;1.30;;;;;;;;;;4976139;28;20069;-58
2022/08/09 10:47:56;;;;;;;3.38;1.33;;;;;;;;;;4986183;28;20038;-58
2022/08/09 10:50:27;;;;;;;3.40;1.00;;;;;;;;;;4980694;28;20042;-58
2022/08/09 10:53:04;;;;;;;4.93;1.35;;;;;;;;;;4976400;28;20100;-59
2022/08/09 10:55:31;;;;;;;3.80;1.25;;;;;;;;;;4987430;28;20060;-59
2022/08/09 10:57:57;;;;;;;6.35;1.50;;;;;;;;;;4979579;28;20046;-58
2022/08/09 11:00:40;;;;;;;6.85;1.15;;;;;;;;;;4982511;28;20390;-59
2022/08/09 11:03:20;;;;;;;4.57;1.20;;;;;;;;;;4976983;28;20053;-59
2022/08/09 11:06:05;;;;;;;4.35;1.05;;;;;;;;;;4979034;28;20039;-59
2022/08/09 11:08:41;;;;;;;5.43;1.58;;;;;;;;;;4978181;28;20038;-60
2022/08/09 11:11:07;;;;;;;3.83;1.20;;;;;;;;;;4968717;28;20034;-59
2022/08/09 11:13:34;;;;;;;6.55;1.70;;;;;;;;;;4977545;28;20118;-60
2022/08/09 11:16:15;;;;;;;5.03;1.50;;;;;;;;;;4959308;28;20046;-60
2022/08/09 11:18:42;;;;;;;7.45;1.15;;;;;;;;;;4983392;28;20058;-60
2022/08/09 11:21:09;;;;;;;6.85;1.75;;;;;;;;;;4957269;28;20038;-60
2022/08/09 11:23:51;;;;;;;4.15;1.30;;;;;;;;;;4981876;28;20074;-58
2022/08/09 11:26:33;;;;;;;5.50;1.30;;;;;;;;;;4982142;28;20038;-59
2022/08/09 11:29:01;;;;;;;3.83;1.20;;;;;;;;;;4973397;28;20054;-59
2022/08/09 11:31:55;;;;;;;5.60;1.35;;;;;;;;;;4975704;28;20110;-60
2022/08/09 11:34:29;;;;;;;3.53;1.10;;;;;;;;;;4970194;28;20817;-60
2022/08/09 11:36:59;;;;;;;4.88;1.20;;;;;;;;;;4983823;28;20038;-59
2022/08/09 11:39:25;;;;;;;5.05;1.20;;;;;;;;;;4971876;28;20134;-61
2022/08/09 11:41:52;;;;;;;4.43;1.33;;;;;;;;;;4977798;28;20073;-60
2022/08/09 11:44:20;;;;;;;3.90;1.10;;;;;;;;;;4963470;28;20046;-60
2022/08/09 11:46:56;;;;;;;6.25;1.55;;;;;;;;;;4983682;28;20038;-60
2022/08/09 11:49:50;;;;;;;4.65;1.45;;;;;;;;;;4971481;28;20046;-61
2022/08/09 11:52:18;;;;;;;5.00;1.27;;;;;;;;;;4974963;28;20058;-60
2022/08/09 11:55:05;;;;;;;4.63;1.40;;;;;;;;;;4978244;28;20138;-60
2022/08/09 11:57:38;;;;;;;4.82;1.67;;;;;;;;;;4975947;28;21060;-59
2022/08/09 12:00:09;;;;;;;6.70;1.63;;;;;;;;;;4981029;28;20046;-60
2022/08/09 12:02:38;;;;;;;3.78;1.25;;;;;;;;;;4971895;28;20049;-57
2022/08/09 12:05:05;;;;;;;4.38;1.35;;;;;;;;;;4967778;28;20030;-58
2022/08/09 12:07:31;;;;;;;8.70;1.50;;;;;;;;;;4980321;28;20042;-60
2022/08/09 12:09:59;;;;;;;4.65;1.33;;;;;;;;;;4980452;28;20043;-60
2022/08/09 12:12:27;;;;;;;4.20;1.30;;;;;;;;;;4967430;28;20047;-59
2022/08/09 12:14:54;;;;;;;4.57;1.77;;;;;;;;;;4976586;28;20034;-63
2022/08/09 12:17:22;;;;;;;5.03;1.20;;;;;;;;;;4955235;28;20030;-60
2022/08/09 12:19:48;;;;;;;4.03;1.30;;;;;;;;;;4961444;28;20425;-58
2022/08/09 12:22:19;;;;;;;3.67;1.38;;;;;;;;;;4978669;28;20407;-60
2022/08/09 12:24:45;;;;;;;4.47;1.23;;;;;;;;;;4978187;28;20109;-59
2022/08/09 12:27:18;;;;;;;4.03;1.30;;;;;;;;;;4974181;28;20038;-60
2022/08/09 12:29:55;;;;;;;3.87;1.57;;;;;;;;;;4512660;28;10002819;-59
2022/08/09 12:32:26;;;;;;;4.25;1.55;;;;;;;;;;4969222;28;20074;-60
2022/08/09 12:34:58;;;;;;;4.10;1.50;;;;;;;;;;4978044;28;20045;-61
2022/08/09 12:37:30;;;;;;;4.23;1.33;;;;;;;;;;4973660;28;20057;-61
2022/08/09 12:40:01;;;;;;;4.00;1.30;;;;;;;;;;4966248;28;20388;-60
2022/08/09 12:42:27;;;;;;;3.60;0.93;;;;;;;;;;4624585;28;10000382;-60
2022/08/09 12:44:54;;;;;;;9.30;1.45;;;;;;;;;;4973754;28;20042;-60
2022/08/09 12:47:21;;;;;;;5.80;1.35;;;;;;;;;;4974069;28;20044;-60
2022/08/09 12:52:36;;;;;;;5.93;1.80;;;;;;;;;;4964297;28;20050;-63
2022/08/09 12:55:04;;;;;;;4.65;1.50;;;;;;;;;;4974812;28;20057;-62
2022/08/09 12:57:38;;;;;;;7.55;1.42;;;;;;;;;;4979926;28;20110;-60
2022/08/09 13:00:16;;;;;;;4.97;1.30;;;;;;;;;;4973337;28;20228;-60
2022/08/09 13:02:47;;;;;;;5.47;1.90;;;;;;;;;;4966921;28;20034;-60
2022/08/09 13:05:15;;;;;;;3.35;0.95;;;;;;;;;;4969681;28;20074;-61
2022/08/09 13:07:42;;;;;;;3.95;1.55;;;;;;;;;;4966782;28;20042;-61
2022/08/09 13:10:08;;;;;;;5.00;1.63;;;;;;;;;;4977135;28;20034;-59
2022/08/09 13:12:47;;;;;;;4.90;1.30;;;;;;;;;;4920257;28;20042;-61
2022/08/09 13:15:13;;;;;;;4.57;1.63;;;;;;;;;;4924955;28;20125;-59
2022/08/09 13:17:40;;;;;;;4.78;1.20;;;;;;;;;;4970983;28;20049;-60
2022/08/09 13:20:07;;;;;;;5.35;1.13;;;;;;;;;;4980805;28;20050;-60
2022/08/09 13:22:47;;;;;;;5.75;1.75;;;;;;;;;;4969534;28;20038;-60
2022/08/09 13:25:13;;;;;;;5.90;1.42;;;;;;;;;;4966663;28;20038;-60
2022/08/09 13:27:40;;;;;;;3.80;1.37;;;;;;;;;;4981818;28;20031;-60
2022/08/09 13:30:08;;;;;;;3.72;1.58;;;;;;;;;;4968146;28;20034;-61
2022/08/09 13:32:52;;;;;;;4.53;1.50;;;;;;;;;;4966869;28;20043;-61
2022/08/09 13:35:19;;;;;;;3.58;1.25;;;;;;;;;;4971147;28;20038;-61
2022/08/09 13:37:48;;;;;;;3.40;1.20;;;;;;;;;;4976327;28;20424;-62
2022/08/09 13:40:15;;;;;;;4.53;1.23;;;;;;;;;;4965128;28;20066;-60
2022/08/09 13:42:42;;;;;;;4.68;1.30;;;;;;;;;;4974103;28;20041;-59
2022/08/09 13:45:09;;;;;;;4.38;1.15;;;;;;;;;;4979437;28;20038;-60
2022/08/09 13:47:36;;;;;;;4.40;1.08;;;;;;;;;;4978329;28;20074;-55
2022/08/09 13:50:04;;;;;;;4.55;1.27;;;;;;;;;;4967397;28;20567;-60
2022/08/09 13:52:32;;;;;;;4.97;1.43;;;;;;;;;;4972951;28;20056;-60
2022/08/09 13:55:00;;;;;;;4.82;1.40;;;;;;;;;;4970496;28;20057;-60
2022/08/09 13:57:27;;;;;;;4.25;1.10;;;;;;;;;;4977072;28;20034;-61
2022/08/09 13:59:54;;;;;;;6.90;1.30;;;;;;;;;;4962132;28;20045;-60
2022/08/09 14:02:20;;;;;;;3.90;1.30;;;;;;;;;;4973082;28;20042;-62
2022/08/09 14:04:47;;;;;;;3.97;1.73;;;;;;;;;;4963240;28;20046;-62
2022/08/09 14:07:13;;;;;;;4.82;1.30;;;;;;;;;;4968198;28;20043;-60
2022/08/09 14:09:40;;;;;;;4.43;1.50;;;;;;;;;;4978615;28;20046;-61
2022/08/09 14:12:08;;;;;;;6.18;1.38;;;;;;;;;;4972018;28;20053;-60
2022/08/09 14:14:35;;;;;;;4.05;1.50;;;;;;;;;;4978312;28;20161;-60
2022/08/09 14:17:02;;;;;;;6.37;1.70;;;;;;;;;;4954816;28;20442;-60
2022/08/09 14:19:28;;;;;;;4.15;1.00;;;;;;;;;;4974915;28;20030;-60
2022/08/09 14:21:55;;;;;;;4.18;1.73;;;;;;;;;;4973613;28;20050;-61
2022/08/09 14:24:21;;;;;;;4.10;1.08;;;;;;;;;;4976506;28;20038;-60
2022/08/09 14:26:48;;;;;;;5.05;1.85;;;;;;;;;;4978765;28;20034;-62
2022/08/09 14:29:17;;;;;;;5.03;1.50;;;;;;;;;;4966423;28;20038;-60
2022/08/09 14:31:44;;;;;;;4.15;1.30;;;;;;;;;;4978395;28;20540;-60
2022/08/09 14:34:11;;;;;;;3.30;0.80;;;;;;;;;;4976139;28;20049;-61
2022/08/09 14:36:37;;;;;;;10.88;2.10;;;;;;;;;;4976236;28;20039;-59
2022/08/09 14:39:04;;;;;;;3.97;1.42;;;;;;;;;;4964109;28;20042;-63
2022/08/09 14:41:31;;;;;;;4.43;1.60;;;;;;;;;;4986816;28;20042;-62
2022/08/09 14:43:58;;;;;;;4.30;1.45;;;;;;;;;;4608904;28;9999995;-61
2022/08/09 14:46:26;;;;;;;4.07;1.25;;;;;;;;;;4984458;28;20046;-59
2022/08/09 14:48:52;;;;;;;3.50;1.20;;;;;;;;;;4966883;28;20277;-61
2022/08/09 14:51:19;;;;;;;5.70;1.45;;;;;;;;;;4984360;28;20058;-62